createdAt,value
2019-02-04T00:02:00.051Z,96018.42
2019-02-04T00:04:30.661Z,96027.97
2019-02-04T00:07:00.827Z,96035.05
2019-02-04T00:09:30.716Z,96031.67
2019-02-04T00:12:00.718Z,96036.27
2019-02-04T00:14:31.788Z,96032.73
2019-02-04T00:17:01.799Z,96031.45
2019-02-04T00:19:31.741Z,96035.89
2019-02-04T00:22:01.663Z,96038.66
2019-02-04T00:24:32.898Z,96039.53
2019-02-04T00:27:02.908Z,96041.41
2019-02-04T00:29:32.926Z,96050.38
2019-02-04T00:32:02.853Z,96056.48
2019-02-04T00:34:32.938Z,96057.91
2019-02-04T00:37:03.342Z,96061.52
2019-02-04T00:39:33.415Z,96060.19
2019-02-04T00:42:03.276Z,96064.70
2019-02-04T00:44:33.170Z,96059.42
2019-02-04T00:47:03.181Z,96062.92
2019-02-04T00:49:33.079Z,96068.63
2019-02-04T00:52:03.376Z,96067.92
2019-02-04T00:54:33.441Z,96069.18
2019-02-04T00:57:03.517Z,96074.67
2019-02-04T00:59:33.526Z,96081.41
2019-02-04T01:02:03.544Z,96076.92
2019-02-04T01:04:33.745Z,96081.16
2019-02-04T01:07:04.217Z,96086.42
2019-02-04T01:09:35.237Z,96095.52
2019-02-04T01:12:05.497Z,96097.83
2019-02-04T01:14:35.432Z,96103.20
2019-02-04T01:17:05.569Z,96100.11
2019-02-04T01:19:35.528Z,96105.70
2019-02-04T01:22:05.963Z,96102.07
2019-02-04T01:24:35.866Z,96110.09
2019-02-04T01:27:05.887Z,96110.34
2019-02-04T01:29:35.850Z,96106.83
2019-02-04T01:32:06.117Z,96111.73
2019-02-04T01:34:36.159Z,96112.48
2019-02-04T01:37:06.206Z,96123.69
2019-02-04T01:39:36.192Z,96118.59
2019-02-04T01:42:06.368Z,96118.18
2019-02-04T01:44:36.877Z,96123.37
2019-02-04T01:47:14.475Z,96119.83
2019-02-04T01:49:38.511Z,96122.31
2019-02-04T01:52:08.599Z,96126.59
2019-02-04T01:54:38.659Z,96122.70
2019-02-04T01:57:08.627Z,96128.55
2019-02-04T01:59:38.477Z,96128.20
2019-02-04T02:02:08.513Z,96127.65
2019-02-04T02:04:39.882Z,96134.61
2019-02-04T02:07:10.022Z,96139.04
2019-02-04T02:09:40.046Z,96136.17
2019-02-04T02:12:10.348Z,96142.16
2019-02-04T02:14:40.408Z,96140.39
2019-02-04T02:17:10.405Z,96152.44
2019-02-04T02:19:40.469Z,96151.27
2019-02-04T02:22:10.466Z,96148.10
2019-02-04T02:24:40.642Z,96156.97
2019-02-04T02:27:10.781Z,96157.11
2019-02-04T02:29:40.794Z,96154.34
2019-02-04T02:32:10.701Z,96148.06
2019-02-04T02:34:40.748Z,96157.87
2019-02-04T02:37:10.763Z,96150.65
2019-02-04T02:39:40.824Z,96148.34
2019-02-04T02:42:10.802Z,96147.87
2019-02-04T02:44:40.721Z,96153.34
2019-02-04T02:47:10.720Z,96151.84
2019-02-04T02:49:40.608Z,96147.00
2019-02-04T02:52:11.011Z,96151.30
2019-02-04T02:54:41.065Z,96149.73
2019-02-04T02:57:11.071Z,96146.16
2019-02-04T02:59:41.101Z,96147.66
2019-02-04T03:02:11.112Z,96146.75
2019-02-04T03:21:33.735Z,96157.63
2019-02-04T03:24:03.714Z,96159.36
2019-02-04T03:26:33.956Z,96158.54
2019-02-04T03:29:04.241Z,96163.89
2019-02-04T03:31:34.243Z,96166.86
2019-02-04T03:34:04.247Z,96168.63
2019-02-04T03:36:34.239Z,96164.65
2019-02-04T03:39:06.665Z,96167.33
2019-02-04T03:41:36.661Z,96170.25
2019-02-04T03:44:06.679Z,96167.94
2019-02-04T03:46:36.640Z,96168.18
2019-02-04T03:49:06.784Z,96169.19
2019-02-04T03:51:37.854Z,96167.02
2019-02-04T03:54:07.853Z,96168.88
2019-02-04T03:56:37.810Z,96167.37
2019-02-04T03:59:07.801Z,96176.80
2019-02-04T04:01:37.880Z,96184.66
2019-02-04T04:04:07.916Z,96185.38
2019-02-04T04:06:38.237Z,96187.38
2019-02-04T04:09:08.694Z,96191.16
2019-02-04T04:11:38.728Z,96192.67
2019-02-04T04:14:08.753Z,96194.39
2019-02-04T04:16:38.763Z,96199.73
2019-02-04T04:19:09.109Z,96199.45
2019-02-04T04:21:39.032Z,96204.42
2019-02-04T04:24:09.206Z,96205.88
2019-02-04T04:26:39.293Z,96204.84
2019-02-04T04:29:09.250Z,96206.44
2019-02-04T04:31:39.253Z,96201.41
2019-02-04T04:34:09.157Z,96209.38
2019-02-04T04:36:39.154Z,96209.77
2019-02-04T04:39:09.206Z,96202.77
2019-02-04T04:41:39.117Z,96205.98
2019-02-04T04:44:09.068Z,96206.84
2019-02-04T04:46:39.321Z,96206.14
2019-02-04T04:49:09.315Z,96208.80
2019-02-04T04:51:39.296Z,96212.44
2019-02-04T04:54:09.116Z,96210.17
2019-02-04T04:56:39.161Z,96213.75
2019-02-04T04:59:09.033Z,96215.81
2019-02-04T05:01:39.014Z,96213.86
2019-02-04T05:04:10.215Z,96220.70
2019-02-04T05:06:40.106Z,96221.58
2019-02-04T05:09:10.143Z,96227.02
2019-02-04T05:11:40.234Z,96229.48
2019-02-04T05:14:10.570Z,96232.52
2019-02-04T05:16:40.598Z,96230.69
2019-02-04T05:19:10.716Z,96223.34
2019-02-04T05:21:40.593Z,96220.91
2019-02-04T05:24:10.681Z,96228.33
2019-02-04T05:26:40.623Z,96234.94
2019-02-04T05:29:10.582Z,96238.81
2019-02-04T05:31:40.548Z,96239.83
2019-02-04T05:34:10.892Z,96246.38
2019-02-04T05:36:41.057Z,96249.77
2019-02-04T05:39:11.090Z,96246.55
2019-02-04T05:41:43.009Z,96254.05
2019-02-04T05:44:13.182Z,96258.00
2019-02-04T05:46:43.115Z,96261.27
2019-02-04T05:49:13.128Z,96263.28
2019-02-04T05:51:43.124Z,96270.66
2019-02-04T05:54:13.356Z,96269.63
2019-02-04T05:56:43.330Z,96271.25
2019-02-04T05:59:13.259Z,96276.04
2019-02-04T06:01:43.227Z,96270.46
2019-02-04T06:04:13.073Z,96272.61
2019-02-04T06:06:42.990Z,96277.25
2019-02-04T06:09:13.224Z,96275.69
2019-02-04T06:11:43.188Z,96277.05
2019-02-04T06:14:13.169Z,96277.60
2019-02-04T06:16:43.074Z,96279.14
2019-02-04T06:19:13.083Z,96282.63
2019-02-04T06:21:43.334Z,96290.91
2019-02-04T06:24:13.273Z,96297.58
2019-02-04T06:26:43.366Z,96298.98
2019-02-04T06:29:13.404Z,96302.03
2019-02-04T06:31:43.313Z,96305.69
2019-02-04T06:34:13.276Z,96305.95
2019-02-04T06:36:43.412Z,96313.20
2019-02-04T06:39:13.447Z,96307.20
2019-02-04T06:41:43.388Z,96308.14
2019-02-04T06:44:13.432Z,96307.69
2019-02-04T06:46:43.350Z,96317.59
2019-02-04T06:49:13.649Z,96320.59
2019-02-04T06:51:43.643Z,96322.95
2019-02-04T06:54:13.712Z,96324.91
2019-02-04T06:56:43.565Z,96321.21
2019-02-04T06:59:13.435Z,96322.97
2019-02-04T07:01:43.452Z,96325.85
2019-02-04T07:04:13.651Z,96327.69
2019-02-04T07:06:43.641Z,96330.19
2019-02-04T07:09:13.710Z,96327.91
2019-02-04T07:11:43.820Z,96328.85
2019-02-04T07:14:13.825Z,96327.77
2019-02-04T07:16:43.801Z,96327.33
2019-02-04T07:19:23.878Z,96328.52
2019-02-04T07:21:45.400Z,96339.22
2019-02-04T07:24:15.298Z,96341.74
2019-02-04T07:26:45.280Z,96349.19
2019-02-04T07:29:15.196Z,96345.55
2019-02-04T07:31:46.055Z,96342.67
2019-02-04T07:34:16.048Z,96344.34
2019-02-04T07:36:46.088Z,96346.00
2019-02-04T07:39:16.140Z,96347.77
2019-02-04T07:41:46.082Z,96350.19
2019-02-04T07:44:16.123Z,96338.55
2019-02-04T07:46:46.030Z,96346.24
2019-02-04T07:49:16.024Z,96338.48
2019-02-04T07:51:46.023Z,96343.98
2019-02-04T07:54:16.069Z,96350.30
2019-02-04T07:56:45.955Z,96347.72
2019-02-04T07:59:16.402Z,96345.61
2019-02-04T08:01:46.429Z,96345.73
2019-02-04T08:04:16.326Z,96340.95
2019-02-04T08:06:46.238Z,96348.58
2019-02-04T08:09:16.236Z,96343.98
2019-02-04T08:11:46.187Z,96343.42
2019-02-04T08:14:16.290Z,96337.78
2019-02-04T08:16:46.365Z,96336.90
2019-02-04T08:19:16.237Z,96338.22
2019-02-04T08:21:46.211Z,96334.39
2019-02-04T08:24:16.135Z,96333.97
2019-02-04T08:26:46.640Z,96323.95
2019-02-04T08:29:16.550Z,96331.46
2019-02-04T08:31:46.526Z,96332.52
2019-02-04T08:34:16.529Z,96325.64
2019-02-04T08:36:46.604Z,96320.83
2019-02-04T08:39:16.584Z,96318.55
2019-02-04T08:41:46.968Z,96318.58
2019-02-04T08:44:16.907Z,96319.31
2019-02-04T08:46:47.103Z,96320.51
2019-02-04T08:49:17.106Z,96325.70
2019-02-04T08:51:47.042Z,96320.77
2019-02-04T08:54:16.934Z,96329.05
2019-02-04T08:56:47.271Z,96327.34
2019-02-04T08:59:17.343Z,96331.14
2019-02-04T09:01:47.338Z,96329.99
2019-02-04T09:04:17.379Z,96335.17
2019-02-04T09:06:47.338Z,96331.62
2019-02-04T09:09:17.555Z,96343.83
2019-02-04T09:11:47.797Z,96336.73
2019-02-04T09:14:17.811Z,96345.34
2019-02-04T09:16:47.790Z,96340.75
2019-02-04T09:19:17.859Z,96345.69
2019-02-04T09:21:47.936Z,96346.97
2019-02-04T09:24:17.932Z,96348.91
2019-02-04T09:26:47.943Z,96341.66
2019-02-04T09:29:17.965Z,96350.64
2019-02-04T09:31:48.013Z,96359.84
2019-02-04T09:34:17.877Z,96357.33
2019-02-04T09:36:47.895Z,96354.46
2019-02-04T09:39:17.943Z,96348.36
2019-02-04T09:41:47.946Z,96345.12
2019-02-04T09:44:18.856Z,96347.90
2019-02-04T09:46:48.895Z,96343.87
2019-02-04T09:49:18.875Z,96337.48
2019-02-04T09:51:48.801Z,96343.31
2019-02-04T09:54:19.160Z,96344.13
2019-02-04T09:56:49.208Z,96354.41
2019-02-04T09:59:19.076Z,96346.14
2019-02-04T10:01:49.089Z,96348.63
2019-02-04T10:04:19.147Z,96341.16
2019-02-04T10:06:49.061Z,96336.97
2019-02-04T10:09:19.100Z,96332.16
2019-02-04T10:11:49.016Z,96330.44
2019-02-04T10:14:18.982Z,96328.66
2019-02-04T10:16:48.970Z,96322.25
2019-02-04T10:19:19.041Z,96315.89
2019-02-04T10:21:49.424Z,96310.01
2019-02-04T10:24:19.450Z,96304.47
2019-02-04T10:26:49.484Z,96287.64
2019-02-04T10:29:19.415Z,96292.37
2019-02-04T10:31:49.438Z,96291.03
2019-02-04T10:34:19.413Z,96297.37
2019-02-04T10:36:49.373Z,96299.09
2019-02-04T10:39:19.214Z,96300.47
2019-02-04T10:41:49.157Z,96294.20
2019-02-04T10:44:19.228Z,96280.48
2019-02-04T10:46:49.426Z,96280.77
2019-02-04T10:49:19.696Z,96276.92
2019-02-04T10:51:49.725Z,96269.98
2019-02-04T10:54:19.670Z,96267.13
2019-02-04T10:56:49.671Z,96264.27
2019-02-04T10:59:19.736Z,96258.44
2019-02-04T11:01:49.746Z,96262.00
2019-02-04T11:04:19.799Z,96243.70
2019-02-04T11:06:49.862Z,96257.17
2019-02-04T11:09:19.929Z,96248.49
2019-02-04T11:11:49.952Z,96250.69
2019-02-04T11:14:20.066Z,96257.02
2019-02-04T11:16:50.232Z,96254.61
2019-02-04T11:19:20.287Z,96256.52
2019-02-04T11:21:50.346Z,96254.56
2019-02-04T11:24:20.482Z,96251.27
2019-02-04T11:26:50.482Z,96253.78
2019-02-04T11:29:20.591Z,96247.34
2019-02-04T11:31:50.741Z,96238.75
2019-02-04T11:34:20.735Z,96240.53
2019-02-04T11:36:50.777Z,96241.00
2019-02-04T11:39:20.856Z,96239.21
2019-02-04T11:41:50.914Z,96241.19
2019-02-04T11:44:21.197Z,96236.98
2019-02-04T11:46:51.136Z,96237.16
2019-02-04T11:49:21.067Z,96236.50
2019-02-04T11:51:50.973Z,96229.95
2019-02-04T11:54:21.111Z,96226.48
2019-02-04T11:56:51.015Z,96221.98
2019-02-04T11:59:21.093Z,96221.41
2019-02-04T12:01:51.386Z,96222.55
2019-02-04T12:04:21.406Z,96213.87
2019-02-04T12:06:51.347Z,96204.02
2019-02-04T12:09:21.331Z,96205.53
2019-02-04T12:11:51.588Z,96209.61
2019-02-04T12:14:21.632Z,96213.00
2019-02-04T12:16:51.576Z,96213.20
2019-02-04T12:19:21.467Z,96207.03
2019-02-04T12:21:51.411Z,96192.86
2019-02-04T12:24:21.472Z,96187.66
2019-02-04T12:26:51.402Z,96190.07
2019-02-04T12:29:21.326Z,96185.02
2019-02-04T12:31:51.332Z,96188.79
2019-02-04T12:34:21.341Z,96186.63
2019-02-04T12:36:51.458Z,96196.42
2019-02-04T12:39:23.162Z,96191.70
2019-02-04T12:41:53.226Z,96192.61
2019-02-04T12:44:23.267Z,96188.22
2019-02-04T12:46:53.207Z,96184.17
2019-02-04T12:49:23.185Z,96181.74
2019-02-04T12:51:53.079Z,96179.30
2019-02-04T12:54:23.326Z,96184.81
2019-02-04T12:56:53.373Z,96188.92
2019-02-04T12:59:23.365Z,96184.36
2019-02-04T13:01:53.415Z,96194.82
2019-02-04T13:04:23.460Z,96184.77
2019-02-04T13:06:53.609Z,96180.45
2019-02-04T13:09:23.546Z,96189.57
2019-02-04T13:11:53.551Z,96195.25
2019-02-04T13:14:23.613Z,96192.38
2019-02-04T13:16:53.678Z,96184.70
2019-02-04T13:19:23.630Z,96184.38
2019-02-04T13:21:53.828Z,96185.50
2019-02-04T13:24:23.792Z,96187.31
2019-02-04T13:26:53.703Z,96181.16
2019-02-04T13:29:23.711Z,96183.56
2019-02-04T13:31:53.539Z,96171.59
2019-02-04T13:34:23.509Z,96173.80
2019-02-04T13:36:53.439Z,96173.73
2019-02-04T13:39:23.435Z,96170.89
2019-02-04T13:41:53.449Z,96166.09
2019-02-04T13:44:23.470Z,96165.46
2019-02-04T13:46:53.498Z,96166.56
2019-02-04T13:49:23.855Z,96163.52
2019-02-04T13:51:57.711Z,96153.29
2019-02-04T13:54:25.443Z,96152.11
2019-02-04T13:56:55.422Z,96141.19
2019-02-04T13:59:25.418Z,96148.72
2019-02-04T14:01:57.055Z,96140.25
2019-02-04T14:04:27.046Z,96141.57
2019-02-04T14:06:56.920Z,96140.23
2019-02-04T14:09:26.989Z,96131.69
2019-02-04T14:11:56.976Z,96134.58
2019-02-04T14:14:26.990Z,96126.61
2019-02-04T14:16:56.989Z,96126.33
2019-02-04T14:19:27.017Z,96124.61
2019-02-04T14:22:08.648Z,96126.09
2019-02-04T14:24:28.745Z,96117.75
2019-02-04T14:26:59.285Z,96115.39
2019-02-04T14:29:29.349Z,96115.80
2019-02-04T14:31:59.328Z,96112.38
2019-02-04T14:34:29.342Z,96112.63
2019-02-04T14:36:59.341Z,96109.41
2019-02-04T14:39:29.232Z,96106.36
2019-02-04T14:41:59.647Z,96102.12
2019-02-04T14:44:45.188Z,96090.95
2019-02-04T14:47:37.246Z,96087.50
2019-02-04T14:50:44.306Z,96077.13
2019-02-04T14:53:52.542Z,96069.94
2019-02-04T14:56:45.442Z,96066.40
2019-02-04T14:59:23.233Z,96063.69
2019-02-04T15:02:34.759Z,96059.09
2019-02-04T15:05:28.070Z,96060.77
2019-02-04T15:08:33.264Z,96057.91
2019-02-04T15:11:41.635Z,96048.28
2019-02-04T15:15:06.658Z,96052.30
2019-02-04T15:18:03.521Z,96046.52
2019-02-04T15:21:13.074Z,96053.81
2019-02-04T15:24:09.196Z,96054.86
2019-02-04T15:27:16.757Z,96051.40
2019-02-04T15:29:54.383Z,96061.61
2019-02-04T15:33:08.725Z,96062.89
2019-02-04T15:36:15.637Z,96053.87
2019-02-04T15:38:57.426Z,96045.60
2019-02-04T15:42:04.138Z,96049.48
2019-02-04T15:45:05.786Z,96052.81
2019-02-04T15:47:53.149Z,96057.36
2019-02-04T15:50:31.303Z,96057.61
2019-02-04T15:53:01.160Z,96065.72
2019-02-04T15:55:31.225Z,96062.16
2019-02-04T15:58:01.223Z,96061.70
2019-02-04T16:00:31.245Z,96057.94
2019-02-04T16:03:01.298Z,96055.92
2019-02-04T16:05:31.194Z,96055.34
2019-02-04T16:08:01.128Z,96054.09
2019-02-04T16:10:32.246Z,96049.73
2019-02-04T16:13:02.192Z,96057.41
2019-02-04T16:15:32.225Z,96060.67
2019-02-04T16:18:02.863Z,96057.77
2019-02-04T16:20:32.768Z,96058.60
2019-02-04T16:23:02.821Z,96055.67
2019-02-04T16:25:32.807Z,96051.86
2019-02-04T16:28:02.777Z,96054.94
2019-02-04T16:30:32.857Z,96057.42
2019-02-04T16:33:02.865Z,96071.88
2019-02-04T16:35:32.898Z,96064.98
2019-02-04T16:38:02.897Z,96075.45
2019-02-04T16:40:32.921Z,96080.28
2019-02-04T16:43:02.833Z,96078.47
2019-02-04T16:45:33.194Z,96078.78
2019-02-04T16:48:03.061Z,96082.60
2019-02-04T16:50:33.178Z,96085.19
2019-02-04T16:53:10.498Z,96085.67
2019-02-04T16:55:34.959Z,96089.14
2019-02-04T16:58:05.244Z,96086.94
2019-02-04T17:00:35.546Z,96087.39
2019-02-04T17:03:05.659Z,96082.70
2019-02-04T17:05:35.818Z,96082.70
2019-02-04T17:08:06.755Z,96084.28
2019-02-04T17:10:36.781Z,96091.28
2019-02-04T17:13:07.220Z,96093.17
2019-02-04T17:15:37.231Z,96087.34
2019-02-04T17:18:07.196Z,96092.98
2019-02-04T17:20:37.194Z,96083.98
2019-02-04T17:23:08.245Z,96089.22
2019-02-04T17:25:38.264Z,96086.83
2019-02-04T17:28:08.539Z,96095.77
2019-02-04T17:30:38.568Z,96090.83
2019-02-04T17:33:08.624Z,96102.17
2019-02-04T17:35:38.737Z,96099.09
2019-02-04T17:38:08.731Z,96103.20
2019-02-04T17:40:39.083Z,96107.19
2019-02-04T17:43:10.158Z,96103.09
2019-02-04T17:45:40.224Z,96107.08
2019-02-04T17:48:10.321Z,96110.41
2019-02-04T17:50:40.380Z,96101.48
2019-02-04T17:53:10.392Z,96102.59
2019-02-04T17:55:40.518Z,96098.60
2019-02-04T17:58:10.422Z,96092.31
2019-02-04T18:00:44.451Z,96095.60
2019-02-04T18:03:14.465Z,96084.97
2019-02-04T18:05:44.516Z,96093.02
2019-02-04T18:08:16.410Z,96095.84
2019-02-04T18:10:46.506Z,96099.12
2019-02-04T18:13:16.640Z,96107.03
2019-02-04T18:15:46.749Z,96101.89
2019-02-04T18:18:16.686Z,96105.06
2019-02-04T18:20:46.794Z,96101.64
2019-02-04T18:23:18.182Z,96100.23
2019-02-04T18:25:48.595Z,96101.56
2019-02-04T18:28:18.624Z,96104.83
2019-02-04T18:30:48.700Z,96116.22
2019-02-04T18:33:18.675Z,96118.52
2019-02-04T18:35:48.723Z,96122.30
2019-02-04T18:38:18.772Z,96116.81
2019-02-04T18:40:49.005Z,96123.45
2019-02-04T18:43:18.970Z,96124.21
2019-02-04T18:45:49.089Z,96124.21
2019-02-04T18:48:19.129Z,96125.12
2019-02-04T18:50:49.560Z,96122.20
2019-02-04T18:53:19.533Z,96126.58
2019-02-04T18:55:49.453Z,96131.02
2019-02-04T18:58:19.418Z,96130.86
2019-02-04T19:00:49.441Z,96132.71
2019-02-04T19:03:19.525Z,96143.45
2019-02-04T19:05:50.806Z,96140.77
2019-02-04T19:08:20.877Z,96139.40
2019-02-04T19:10:50.942Z,96136.29
2019-02-04T19:13:20.971Z,96134.15
2019-02-04T19:15:51.029Z,96124.19
2019-02-04T19:18:21.068Z,96126.61
2019-02-04T19:20:51.095Z,96126.33
2019-02-04T19:23:21.112Z,96121.55
2019-02-04T19:25:51.409Z,96123.50
2019-02-04T19:31:13.913Z,96128.23
2019-02-04T19:33:43.830Z,96129.75
2019-02-04T19:36:13.874Z,96122.55
2019-02-04T19:38:44.117Z,96121.95
2019-02-04T19:41:14.216Z,96117.88
2019-02-04T19:43:44.125Z,96118.58
2019-02-04T19:46:14.173Z,96123.45
2019-02-04T19:48:44.204Z,96120.53
2019-02-04T19:51:14.714Z,96121.94
2019-02-04T19:53:44.747Z,96125.31
2019-02-04T19:56:14.795Z,96125.01
2019-02-04T19:58:44.757Z,96124.25
2019-02-04T20:01:14.839Z,96123.25
2019-02-04T20:03:44.847Z,96127.48
2019-02-04T20:06:15.303Z,96130.70
2019-02-04T20:08:45.155Z,96130.52
2019-02-04T20:11:15.306Z,96125.78
2019-02-04T20:13:45.318Z,96124.32
2019-02-04T20:16:15.449Z,96127.64
2019-02-04T20:18:46.339Z,96122.95
2019-02-04T20:21:16.500Z,96124.47
2019-02-04T20:23:46.539Z,96126.08
2019-02-04T20:26:16.810Z,96126.55
2019-02-04T20:28:46.795Z,96134.25
2019-02-04T20:31:17.067Z,96128.82
2019-02-04T20:33:47.562Z,96132.09
2019-02-04T20:36:17.722Z,96135.41
2019-02-04T20:38:50.013Z,96139.48
2019-02-04T20:41:19.978Z,96135.52
2019-02-04T20:43:50.083Z,96139.25
2019-02-04T20:46:20.270Z,96137.17
2019-02-04T20:48:50.815Z,96138.53
2019-02-04T20:51:20.861Z,96145.19
2019-02-04T20:53:50.828Z,96144.87
2019-02-04T20:56:20.819Z,96146.39
2019-02-04T20:58:50.700Z,96144.87
2019-02-04T21:01:20.526Z,96147.52
2019-02-04T21:03:50.532Z,96145.29
2019-02-04T21:06:20.463Z,96148.47
2019-02-04T21:08:50.453Z,96144.13
2019-02-04T21:11:20.808Z,96144.13
2019-02-04T21:13:50.994Z,96143.72
2019-02-04T21:16:21.012Z,96145.29
2019-02-04T21:18:50.991Z,96143.43
2019-02-04T21:21:20.935Z,96140.80
2019-02-04T21:23:50.793Z,96144.94
2019-02-04T21:26:20.710Z,96139.50
2019-02-04T21:28:50.626Z,96135.12
2019-02-04T21:31:20.751Z,96145.08
2019-02-04T21:33:51.877Z,96142.36
2019-02-04T21:36:21.829Z,96151.39
2019-02-04T21:38:51.668Z,96146.36
2019-02-04T21:41:21.735Z,96152.10
2019-02-04T21:43:51.596Z,96148.05
2019-02-04T21:46:21.571Z,96151.84
2019-02-04T21:48:51.487Z,96153.20
2019-02-04T21:51:21.556Z,96152.64
2019-02-04T21:53:51.477Z,96153.75
2019-02-04T21:56:21.664Z,96150.83
2019-02-04T21:58:52.448Z,96143.02
2019-02-04T22:01:22.397Z,96144.37
2019-02-04T22:03:52.370Z,96145.69
2019-02-04T22:06:22.334Z,96139.24
2019-02-04T22:08:52.323Z,96135.41
2019-02-04T22:11:22.375Z,96133.55
2019-02-04T22:13:52.305Z,96129.24
2019-02-04T22:16:22.267Z,96134.05
2019-02-04T22:18:52.288Z,96136.37
2019-02-04T22:21:22.123Z,96141.48
2019-02-04T22:23:52.141Z,96135.84
2019-02-04T22:26:22.073Z,96145.03
2019-02-04T22:28:52.115Z,96139.49
2019-02-04T22:31:21.967Z,96139.69
2019-02-04T22:33:52.039Z,96138.28
2019-02-04T22:36:21.995Z,96136.12
2019-02-04T22:38:51.855Z,96145.44
2019-02-04T22:41:22.490Z,96140.45
2019-02-04T22:43:57.742Z,96142.61
2019-02-04T22:46:27.626Z,96146.80
2019-02-04T22:48:57.525Z,96140.80
2019-02-04T22:51:27.570Z,96140.95
2019-02-04T22:53:57.502Z,96142.52
2019-02-04T22:56:27.818Z,96133.86
2019-02-04T22:58:57.761Z,96136.42
2019-02-04T23:01:40.348Z,96137.70
2019-02-04T23:04:10.514Z,96136.30
2019-02-04T23:06:40.406Z,96130.25
2019-02-04T23:09:10.759Z,96137.52
2019-02-04T23:11:40.861Z,96139.41
2019-02-04T23:14:10.859Z,96139.20
2019-02-04T23:16:40.891Z,96136.43
2019-02-04T23:19:10.898Z,96128.55
2019-02-04T23:21:41.010Z,96126.13
2019-02-04T23:24:10.969Z,96123.30
2019-02-04T23:26:40.973Z,96123.61
2019-02-04T23:29:10.941Z,96124.96
2019-02-04T23:31:40.954Z,96128.23
2019-02-04T23:34:12.018Z,96133.14
2019-02-04T23:36:42.003Z,96131.42
2019-02-04T23:39:12.035Z,96129.28
2019-02-04T23:41:42.020Z,96122.46
2019-02-04T23:44:14.053Z,96121.13
2019-02-04T23:46:43.729Z,96122.13
2019-02-04T23:49:13.666Z,96126.94
2019-02-04T23:51:43.808Z,96128.75
2019-02-04T23:54:13.841Z,96125.30
2019-02-04T23:56:43.840Z,96119.34
2019-02-04T23:59:14.178Z,96114.75
